Pineville, MO

1:25 PM CDT on June 03, 2015 (GMT -0500)
NW Arkansas Airport | | Change Station
CLOSE
Current Station
Airport
Location: NW Arkansas Airport,
Elevation: 1286 ft
Nearby Weather Stations

Elev 1286 ft 36.28 °N, 94.31 °W | Updated 32 minutes ago

Partly Cloudy
Partly Cloudy
80 °F
Feels Like 82 °F
N
6
Wind Variable Wind from South

Today
High -- | Low -- °F
--% Chance of Precip.
Yesterday
High -- | Low -- °F
Precip. -- in
5:59 AM 8:31 PM
Full, 99% visible
Pressure 29.97 in
Visibility 10.0 miles
Clouds Few 2900 ft
Scattered Clouds 3600 ft
Heat Index 82 °F
Dew Point 66 °F
Humidity 62%
Rainfall 0.00 in
Snow Depth Not available.
UV 10 out of 12
Pollen 7.90 out of 12
Air Quality Not available.
Flu Activity Sporadic
METAR KXNA 031753Z 17005KT 10SM FEW029 SCT036 27/19 A3001 RMK AO2 SLP147 T02670189 10272 20183 51002

More Conditions Fewer Conditions

Pressure 29.97 in
Visibility 10.0 miles
Clouds Few 2900 ft
Scattered Clouds 3600 ft
Heat Index 82 °F
Dew Point 66 °F
Humidity 62%
Rainfall 0.00 in
Snow Depth Not available.
UV 10 out of 12
Pollen 7.90 out of 12
Air Quality Not available.
Flu Activity Sporadic
METAR KXNA 031753Z 17005KT 10SM FEW029 SCT036 27/19 A3001 RMK AO2 SLP147 T02670189 10272 20183 51002

More Conditions Fewer Conditions

10-Day Weather Forecast

×

Almanac

Astronomy

Jun. 03, 2015 Rise Set
Actual Time
Civil Twilight
Nautical Twilight
Astronomical Twilight
Moon
Length of Visible Light
Length of Day
Tomorrow will be .
, % of the Moon is Illuminated

Today's Extremes

State Highs State Lows

Community

WunderPhotos

Upload Photos

1,826,269 photos uploaded!

WunderBlogs® & News

Nearby

Air Quality

  Air Quality AQ Index Pollutant
Not available.

Snow Depth

Station Depth Elevation

Earthquake Activity

City Distance Mag. Time & Date
Minimum magnitude displayed is 2.5.

Coastal Water Temperatures

Place Temperature

Stations

Nearby Weather Stations

Station Location Temp. Windchill Dew Point Humidity Wind Precip. Elev Updated Type